sensor_id;sensor_type;location;lat;lon;timestamp;P1;durP1;ratioP1;P2;durP2;ratioP2
71464;SDS011;59274;49.874;9.154;2023-02-20T00:01:19;7.22;;;3.38;;
71464;SDS011;59274;49.874;9.154;2023-02-20T00:03:46;7.90;;;3.00;;
71464;SDS011;59274;49.874;9.154;2023-02-20T00:06:11;9.65;;;3.25;;
71464;SDS011;59274;49.874;9.154;2023-02-20T00:08:37;8.33;;;3.17;;
71464;SDS011;59274;49.874;9.154;2023-02-20T00:11:03;9.00;;;3.50;;
71464;SDS011;59274;49.874;9.154;2023-02-20T00:13:28;9.90;;;3.17;;
71464;SDS011;59274;49.874;9.154;2023-02-20T00:15:54;9.67;;;3.30;;
71464;SDS011;59274;49.874;9.154;2023-02-20T00:18:19;14.67;;;4.40;;
71464;SDS011;59274;49.874;9.154;2023-02-20T00:20:44;8.70;;;3.30;;
71464;SDS011;59274;49.874;9.154;2023-02-20T00:23:10;9.73;;;3.33;;
71464;SDS011;59274;49.874;9.154;2023-02-20T00:25:35;8.63;;;3.40;;
71464;SDS011;59274;49.874;9.154;2023-02-20T00:28:01;7.63;;;3.37;;
71464;SDS011;59274;49.874;9.154;2023-02-20T00:30:27;12.10;;;3.97;;
71464;SDS011;59274;49.874;9.154;2023-02-20T00:32:53;9.63;;;3.70;;
71464;SDS011;59274;49.874;9.154;2023-02-20T00:35:20;9.20;;;3.53;;
71464;SDS011;59274;49.874;9.154;2023-02-20T00:37:47;10.18;;;3.55;;
71464;SDS011;59274;49.874;9.154;2023-02-20T00:40:14;9.93;;;3.97;;
71464;SDS011;59274;49.874;9.154;2023-02-20T00:42:40;10.98;;;3.40;;
71464;SDS011;59274;49.874;9.154;2023-02-20T00:45:06;8.50;;;3.43;;
71464;SDS011;59274;49.874;9.154;2023-02-20T00:47:32;12.45;;;3.60;;
71464;SDS011;59274;49.874;9.154;2023-02-20T00:49:58;10.65;;;3.90;;
71464;SDS011;59274;49.874;9.154;2023-02-20T00:52:23;8.23;;;3.67;;
71464;SDS011;59274;49.874;9.154;2023-02-20T00:54:49;13.65;;;5.18;;
71464;SDS011;59274;49.874;9.154;2023-02-20T00:57:15;13.57;;;4.00;;
71464;SDS011;59274;49.874;9.154;2023-02-20T00:59:41;7.63;;;3.60;;
71464;SDS011;59274;49.874;9.154;2023-02-20T01:02:06;11.95;;;4.22;;
71464;SDS011;59274;49.874;9.154;2023-02-20T01:04:32;11.73;;;4.20;;
71464;SDS011;59274;49.874;9.154;2023-02-20T01:06:57;10.80;;;3.60;;
71464;SDS011;59274;49.874;9.154;2023-02-20T01:09:23;9.90;;;3.80;;
71464;SDS011;59274;49.874;9.154;2023-02-20T01:11:50;10.55;;;4.15;;
71464;SDS011;59274;49.874;9.154;2023-02-20T01:14:15;11.63;;;3.80;;
71464;SDS011;59274;49.874;9.154;2023-02-20T01:16:44;10.15;;;4.13;;
71464;SDS011;59274;49.874;9.154;2023-02-20T01:19:15;10.07;;;4.30;;
71464;SDS011;59274;49.874;9.154;2023-02-20T01:21:41;12.30;;;3.72;;
71464;SDS011;59274;49.874;9.154;2023-02-20T01:24:06;12.87;;;4.57;;
71464;SDS011;59274;49.874;9.154;2023-02-20T01:26:32;11.32;;;4.20;;
71464;SDS011;59274;49.874;9.154;2023-02-20T01:28:57;11.57;;;4.20;;
71464;SDS011;59274;49.874;9.154;2023-02-20T01:31:23;10.27;;;4.10;;
71464;SDS011;59274;49.874;9.154;2023-02-20T01:33:48;10.80;;;4.40;;
71464;SDS011;59274;49.874;9.154;2023-02-20T01:36:13;11.37;;;3.80;;
71464;SDS011;59274;49.874;9.154;2023-02-20T01:38:39;12.35;;;4.10;;
71464;SDS011;59274;49.874;9.154;2023-02-20T01:41:06;9.95;;;3.95;;
71464;SDS011;59274;49.874;9.154;2023-02-20T01:43:32;10.50;;;3.95;;
71464;SDS011;59274;49.874;9.154;2023-02-20T01:48:56;9.07;;;3.63;;
71464;SDS011;59274;49.874;9.154;2023-02-20T01:51:24;9.50;;;3.78;;
71464;SDS011;59274;49.874;9.154;2023-02-20T01:53:51;11.40;;;3.97;;
71464;SDS011;59274;49.874;9.154;2023-02-20T01:56:17;10.07;;;3.73;;
71464;SDS011;59274;49.874;9.154;2023-02-20T01:58:43;11.57;;;4.57;;
71464;SDS011;59274;49.874;9.154;2023-02-20T02:01:11;9.47;;;3.57;;
71464;SDS011;59274;49.874;9.154;2023-02-20T02:03:38;8.55;;;3.83;;
71464;SDS011;59274;49.874;9.154;2023-02-20T02:06:08;9.50;;;3.95;;
71464;SDS011;59274;49.874;9.154;2023-02-20T02:08:36;10.37;;;3.70;;
71464;SDS011;59274;49.874;9.154;2023-02-20T02:11:07;8.65;;;3.63;;
71464;SDS011;59274;49.874;9.154;2023-02-20T02:13:35;8.73;;;3.88;;
71464;SDS011;59274;49.874;9.154;2023-02-20T02:16:12;10.80;;;3.75;;
71464;SDS011;59274;49.874;9.154;2023-02-20T02:27:15;12.40;;;3.75;;
71464;SDS011;59274;49.874;9.154;2023-02-20T02:35:33;8.93;;;3.63;;
71464;SDS011;59274;49.874;9.154;2023-02-20T02:49:00;11.88;;;3.97;;
71464;SDS011;59274;49.874;9.154;2023-02-20T02:51:30;10.53;;;3.90;;
71464;SDS011;59274;49.874;9.154;2023-02-20T02:54:04;9.30;;;4.07;;
71464;SDS011;59274;49.874;9.154;2023-02-20T02:56:38;10.60;;;3.95;;
71464;SDS011;59274;49.874;9.154;2023-02-20T02:59:06;9.82;;;3.70;;
71464;SDS011;59274;49.874;9.154;2023-02-20T03:01:36;11.43;;;3.97;;
71464;SDS011;59274;49.874;9.154;2023-02-20T03:04:06;10.53;;;3.77;;
71464;SDS011;59274;49.874;9.154;2023-02-20T03:06:36;11.13;;;4.18;;
71464;SDS011;59274;49.874;9.154;2023-02-20T03:09:08;9.82;;;4.35;;
71464;SDS011;59274;49.874;9.154;2023-02-20T03:11:37;10.98;;;3.97;;
71464;SDS011;59274;49.874;9.154;2023-02-20T03:14:15;11.32;;;3.97;;
71464;SDS011;59274;49.874;9.154;2023-02-20T03:17:07;9.80;;;3.73;;
71464;SDS011;59274;49.874;9.154;2023-02-20T03:20:07;8.57;;;3.45;;
71464;SDS011;59274;49.874;9.154;2023-02-20T03:22:52;10.30;;;4.10;;
71464;SDS011;59274;49.874;9.154;2023-02-20T03:30:23;10.63;;;4.30;;
71464;SDS011;59274;49.874;9.154;2023-02-20T03:33:03;10.05;;;3.63;;
71464;SDS011;59274;49.874;9.154;2023-02-20T03:35:51;11.07;;;3.85;;
71464;SDS011;59274;49.874;9.154;2023-02-20T03:38:37;9.55;;;4.07;;
71464;SDS011;59274;49.874;9.154;2023-02-20T03:41:25;10.00;;;3.90;;
71464;SDS011;59274;49.874;9.154;2023-02-20T03:44:12;11.70;;;4.37;;
71464;SDS011;59274;49.874;9.154;2023-02-20T03:46:40;10.90;;;4.15;;
71464;SDS011;59274;49.874;9.154;2023-02-20T03:49:10;10.50;;;4.70;;
71464;SDS011;59274;49.874;9.154;2023-02-20T03:51:57;11.13;;;4.10;;
71464;SDS011;59274;49.874;9.154;2023-02-20T03:54:24;11.38;;;4.35;;
71464;SDS011;59274;49.874;9.154;2023-02-20T03:56:54;10.10;;;3.87;;
71464;SDS011;59274;49.874;9.154;2023-02-20T03:59:31;10.82;;;4.72;;
71464;SDS011;59274;49.874;9.154;2023-02-20T04:02:02;10.90;;;4.40;;
71464;SDS011;59274;49.874;9.154;2023-02-20T04:04:33;11.18;;;4.50;;
71464;SDS011;59274;49.874;9.154;2023-02-20T04:07:09;12.75;;;4.90;;
71464;SDS011;59274;49.874;9.154;2023-02-20T04:09:41;13.50;;;4.60;;
71464;SDS011;59274;49.874;9.154;2023-02-20T04:12:12;8.90;;;4.15;;
71464;SDS011;59274;49.874;9.154;2023-02-20T04:14:37;11.30;;;4.10;;
71464;SDS011;59274;49.874;9.154;2023-02-20T04:17:05;10.55;;;4.47;;
71464;SDS011;59274;49.874;9.154;2023-02-20T04:19:35;14.20;;;4.83;;
71464;SDS011;59274;49.874;9.154;2023-02-20T04:22:02;10.95;;;4.43;;
71464;SDS011;59274;49.874;9.154;2023-02-20T04:24:32;10.70;;;4.70;;
71464;SDS011;59274;49.874;9.154;2023-02-20T04:27:02;14.40;;;4.60;;
71464;SDS011;59274;49.874;9.154;2023-02-20T04:29:28;13.95;;;4.38;;
71464;SDS011;59274;49.874;9.154;2023-02-20T04:31:53;12.03;;;4.90;;
71464;SDS011;59274;49.874;9.154;2023-02-20T04:34:19;12.02;;;4.88;;
71464;SDS011;59274;49.874;9.154;2023-02-20T04:36:44;15.60;;;5.23;;
71464;SDS011;59274;49.874;9.154;2023-02-20T04:39:10;11.23;;;4.30;;
71464;SDS011;59274;49.874;9.154;2023-02-20T04:41:35;11.47;;;4.47;;
71464;SDS011;59274;49.874;9.154;2023-02-20T04:44:01;15.32;;;5.18;;
71464;SDS011;59274;49.874;9.154;2023-02-20T04:46:45;13.07;;;4.83;;
71464;SDS011;59274;49.874;9.154;2023-02-20T04:49:10;14.32;;;4.75;;
71464;SDS011;59274;49.874;9.154;2023-02-20T04:51:35;13.43;;;5.27;;
71464;SDS011;59274;49.874;9.154;2023-02-20T04:54:01;12.63;;;5.17;;
71464;SDS011;59274;49.874;9.154;2023-02-20T04:56:26;13.17;;;5.20;;
71464;SDS011;59274;49.874;9.154;2023-02-20T04:58:52;16.07;;;5.83;;
71464;SDS011;59274;49.874;9.154;2023-02-20T05:01:17;16.02;;;5.45;;
71464;SDS011;59274;49.874;9.154;2023-02-20T05:03:42;13.05;;;5.15;;
71464;SDS011;59274;49.874;9.154;2023-02-20T05:06:08;14.63;;;5.13;;
71464;SDS011;59274;49.874;9.154;2023-02-20T05:08:33;17.73;;;5.67;;
71464;SDS011;59274;49.874;9.154;2023-02-20T05:10:59;15.27;;;5.73;;
71464;SDS011;59274;49.874;9.154;2023-02-20T05:13:24;13.57;;;5.00;;
71464;SDS011;59274;49.874;9.154;2023-02-20T05:15:50;12.23;;;4.90;;
71464;SDS011;59274;49.874;9.154;2023-02-20T05:18:25;17.37;;;5.43;;
71464;SDS011;59274;49.874;9.154;2023-02-20T05:20:51;14.23;;;5.18;;
71464;SDS011;59274;49.874;9.154;2023-02-20T05:23:35;13.00;;;4.95;;
71464;SDS011;59274;49.874;9.154;2023-02-20T05:26:00;16.60;;;4.90;;
71464;SDS011;59274;49.874;9.154;2023-02-20T05:28:26;15.87;;;5.50;;
71464;SDS011;59274;49.874;9.154;2023-02-20T05:30:51;11.27;;;4.47;;
71464;SDS011;59274;49.874;9.154;2023-02-20T05:33:16;13.33;;;4.77;;
71464;SDS011;59274;49.874;9.154;2023-02-20T05:35:42;13.77;;;5.53;;
71464;SDS011;59274;49.874;9.154;2023-02-20T05:38:07;11.63;;;5.25;;
71464;SDS011;59274;49.874;9.154;2023-02-20T05:40:33;13.07;;;4.90;;
71464;SDS011;59274;49.874;9.154;2023-02-20T05:42:58;13.63;;;4.43;;
71464;SDS011;59274;49.874;9.154;2023-02-20T05:45:23;15.33;;;4.60;;
71464;SDS011;59274;49.874;9.154;2023-02-20T05:47:49;14.37;;;4.70;;
71464;SDS011;59274;49.874;9.154;2023-02-20T05:50:14;18.03;;;5.77;;
71464;SDS011;59274;49.874;9.154;2023-02-20T05:52:40;14.02;;;5.30;;
71464;SDS011;59274;49.874;9.154;2023-02-20T05:55:06;14.98;;;5.10;;
71464;SDS011;59274;49.874;9.154;2023-02-20T05:57:31;15.80;;;5.93;;
71464;SDS011;59274;49.874;9.154;2023-02-20T05:59:57;12.90;;;5.20;;
71464;SDS011;59274;49.874;9.154;2023-02-20T06:02:22;13.87;;;5.33;;
71464;SDS011;59274;49.874;9.154;2023-02-20T06:04:48;15.73;;;5.03;;
71464;SDS011;59274;49.874;9.154;2023-02-20T06:07:13;15.02;;;5.03;;
71464;SDS011;59274;49.874;9.154;2023-02-20T06:09:42;12.17;;;5.40;;
71464;SDS011;59274;49.874;9.154;2023-02-20T06:12:08;13.35;;;5.25;;
71464;SDS011;59274;49.874;9.154;2023-02-20T06:14:37;13.13;;;4.77;;
71464;SDS011;59274;49.874;9.154;2023-02-20T06:17:02;13.77;;;5.80;;
71464;SDS011;59274;49.874;9.154;2023-02-20T06:19:28;14.67;;;6.23;;
71464;SDS011;59274;49.874;9.154;2023-02-20T06:21:53;19.53;;;7.47;;
71464;SDS011;59274;49.874;9.154;2023-02-20T06:24:19;17.42;;;7.00;;
71464;SDS011;59274;49.874;9.154;2023-02-20T06:26:44;16.73;;;7.65;;
71464;SDS011;59274;49.874;9.154;2023-02-20T06:29:11;18.38;;;6.78;;
71464;SDS011;59274;49.874;9.154;2023-02-20T06:31:38;13.67;;;6.50;;
71464;SDS011;59274;49.874;9.154;2023-02-20T06:34:05;17.73;;;7.32;;
71464;SDS011;59274;49.874;9.154;2023-02-20T06:36:32;21.20;;;7.80;;
71464;SDS011;59274;49.874;9.154;2023-02-20T06:39:00;17.98;;;7.43;;
71464;SDS011;59274;49.874;9.154;2023-02-20T06:41:25;20.08;;;7.78;;
71464;SDS011;59274;49.874;9.154;2023-02-20T06:43:51;15.43;;;6.87;;
71464;SDS011;59274;49.874;9.154;2023-02-20T06:46:17;17.08;;;7.93;;
71464;SDS011;59274;49.874;9.154;2023-02-20T06:48:46;16.77;;;7.17;;
71464;SDS011;59274;49.874;9.154;2023-02-20T06:51:17;45.97;;;15.63;;
71464;SDS011;59274;49.874;9.154;2023-02-20T06:53:43;96.10;;;27.27;;
71464;SDS011;59274;49.874;9.154;2023-02-20T06:56:09;58.73;;;19.00;;
71464;SDS011;59274;49.874;9.154;2023-02-20T06:58:39;82.00;;;27.50;;
71464;SDS011;59274;49.874;9.154;2023-02-20T07:01:05;64.88;;;22.85;;
71464;SDS011;59274;49.874;9.154;2023-02-20T07:03:31;24.30;;;9.20;;
71464;SDS011;59274;49.874;9.154;2023-02-20T07:05:56;14.17;;;7.10;;
71464;SDS011;59274;49.874;9.154;2023-02-20T07:08:21;15.90;;;6.90;;
71464;SDS011;59274;49.874;9.154;2023-02-20T07:10:47;18.80;;;7.23;;
71464;SDS011;59274;49.874;9.154;2023-02-20T07:13:12;17.33;;;7.13;;
71464;SDS011;59274;49.874;9.154;2023-02-20T07:15:37;14.53;;;6.40;;
71464;SDS011;59274;49.874;9.154;2023-02-20T07:18:03;26.67;;;8.07;;
71464;SDS011;59274;49.874;9.154;2023-02-20T07:20:28;21.33;;;7.03;;
71464;SDS011;59274;49.874;9.154;2023-02-20T07:22:54;12.90;;;6.47;;
71464;SDS011;59274;49.874;9.154;2023-02-20T07:25:19;14.40;;;6.47;;
71464;SDS011;59274;49.874;9.154;2023-02-20T07:27:45;14.03;;;6.57;;
71464;SDS011;59274;49.874;9.154;2023-02-20T07:30:10;15.13;;;6.63;;
71464;SDS011;59274;49.874;9.154;2023-02-20T07:32:36;16.88;;;7.60;;
71464;SDS011;59274;49.874;9.154;2023-02-20T07:35:02;16.33;;;7.73;;
71464;SDS011;59274;49.874;9.154;2023-02-20T07:37:27;19.23;;;8.67;;
71464;SDS011;59274;49.874;9.154;2023-02-20T07:39:52;18.30;;;8.93;;
71464;SDS011;59274;49.874;9.154;2023-02-20T07:42:18;20.58;;;9.13;;
71464;SDS011;59274;49.874;9.154;2023-02-20T07:44:43;21.07;;;8.10;;
71464;SDS011;59274;49.874;9.154;2023-02-20T07:47:11;17.77;;;8.30;;
71464;SDS011;59274;49.874;9.154;2023-02-20T07:49:36;20.33;;;8.10;;
71464;SDS011;59274;49.874;9.154;2023-02-20T07:52:02;18.58;;;8.55;;
71464;SDS011;59274;49.874;9.154;2023-02-20T07:54:27;17.57;;;7.50;;
71464;SDS011;59274;49.874;9.154;2023-02-20T07:56:53;15.77;;;6.67;;
71464;SDS011;59274;49.874;9.154;2023-02-20T07:59:19;16.10;;;7.45;;
71464;SDS011;59274;49.874;9.154;2023-02-20T08:01:45;15.95;;;7.35;;
71464;SDS011;59274;49.874;9.154;2023-02-20T08:04:10;15.60;;;7.13;;
71464;SDS011;59274;49.874;9.154;2023-02-20T08:06:36;13.67;;;7.37;;
71464;SDS011;59274;49.874;9.154;2023-02-20T08:09:01;15.40;;;6.77;;
71464;SDS011;59274;49.874;9.154;2023-02-20T08:11:27;15.88;;;6.95;;
71464;SDS011;59274;49.874;9.154;2023-02-20T08:13:56;16.03;;;6.90;;
71464;SDS011;59274;49.874;9.154;2023-02-20T08:16:22;13.70;;;6.45;;
71464;SDS011;59274;49.874;9.154;2023-02-20T08:18:47;13.80;;;6.40;;
71464;SDS011;59274;49.874;9.154;2023-02-20T08:21:13;12.87;;;6.10;;
71464;SDS011;59274;49.874;9.154;2023-02-20T08:23:38;13.45;;;5.70;;
71464;SDS011;59274;49.874;9.154;2023-02-20T08:26:04;12.10;;;5.37;;
71464;SDS011;59274;49.874;9.154;2023-02-20T08:28:30;11.80;;;5.38;;
71464;SDS011;59274;49.874;9.154;2023-02-20T08:30:55;10.60;;;4.80;;
71464;SDS011;59274;49.874;9.154;2023-02-20T08:33:21;13.23;;;5.00;;
71464;SDS011;59274;49.874;9.154;2023-02-20T08:35:46;24.50;;;8.83;;
71464;SDS011;59274;49.874;9.154;2023-02-20T08:38:22;19.20;;;7.30;;
71464;SDS011;59274;49.874;9.154;2023-02-20T08:40:49;18.05;;;5.70;;
71464;SDS011;59274;49.874;9.154;2023-02-20T08:43:14;18.63;;;6.60;;
71464;SDS011;59274;49.874;9.154;2023-02-20T08:45:39;13.93;;;5.37;;
71464;SDS011;59274;49.874;9.154;2023-02-20T08:48:05;10.50;;;5.13;;
71464;SDS011;59274;49.874;9.154;2023-02-20T08:50:30;12.77;;;4.93;;
71464;SDS011;59274;49.874;9.154;2023-02-20T08:52:56;10.77;;;4.90;;
71464;SDS011;59274;49.874;9.154;2023-02-20T08:55:21;12.00;;;4.50;;
71464;SDS011;59274;49.874;9.154;2023-02-20T08:57:47;13.67;;;4.63;;
71464;SDS011;59274;49.874;9.154;2023-02-20T09:00:13;14.98;;;5.00;;
71464;SDS011;59274;49.874;9.154;2023-02-20T09:02:39;11.70;;;4.57;;
71464;SDS011;59274;49.874;9.154;2023-02-20T09:05:06;12.18;;;4.13;;
71464;SDS011;59274;49.874;9.154;2023-02-20T09:07:31;13.20;;;4.60;;
71464;SDS011;59274;49.874;9.154;2023-02-20T09:09:57;11.13;;;4.40;;
71464;SDS011;59274;49.874;9.154;2023-02-20T09:12:22;12.83;;;4.70;;
71464;SDS011;59274;49.874;9.154;2023-02-20T09:14:47;11.75;;;4.68;;
71464;SDS011;59274;49.874;9.154;2023-02-20T09:17:13;12.50;;;4.40;;
71464;SDS011;59274;49.874;9.154;2023-02-20T09:19:38;14.90;;;4.50;;
71464;SDS011;59274;49.874;9.154;2023-02-20T09:22:04;14.83;;;5.00;;
71464;SDS011;59274;49.874;9.154;2023-02-20T09:24:29;14.57;;;4.68;;
71464;SDS011;59274;49.874;9.154;2023-02-20T09:27:02;11.25;;;4.60;;
71464;SDS011;59274;49.874;9.154;2023-02-20T09:29:30;13.60;;;5.68;;
71464;SDS011;59274;49.874;9.154;2023-02-20T09:31:55;13.20;;;4.40;;
71464;SDS011;59274;49.874;9.154;2023-02-20T09:34:21;11.68;;;4.65;;
71464;SDS011;59274;49.874;9.154;2023-02-20T09:36:46;11.90;;;4.53;;
71464;SDS011;59274;49.874;9.154;2023-02-20T09:39:12;14.93;;;5.10;;
71464;SDS011;59274;49.874;9.154;2023-02-20T09:41:48;13.43;;;4.70;;
71464;SDS011;59274;49.874;9.154;2023-02-20T09:44:24;13.25;;;4.32;;
71464;SDS011;59274;49.874;9.154;2023-02-20T09:46:59;13.38;;;4.72;;
71464;SDS011;59274;49.874;9.154;2023-02-20T09:49:31;14.00;;;4.83;;
71464;SDS011;59274;49.874;9.154;2023-02-20T09:51:59;10.63;;;4.43;;
71464;SDS011;59274;49.874;9.154;2023-02-20T09:54:30;13.85;;;4.43;;
71464;SDS011;59274;49.874;9.154;2023-02-20T09:57:01;10.43;;;4.03;;
71464;SDS011;59274;49.874;9.154;2023-02-20T09:59:37;9.82;;;4.18;;
71464;SDS011;59274;49.874;9.154;2023-02-20T10:02:43;13.20;;;4.27;;
71464;SDS011;59274;49.874;9.154;2023-02-20T10:05:22;12.35;;;4.30;;
71464;SDS011;59274;49.874;9.154;2023-02-20T10:07:50;10.38;;;4.32;;
71464;SDS011;59274;49.874;9.154;2023-02-20T10:10:21;13.82;;;4.45;;
71464;SDS011;59274;49.874;9.154;2023-02-20T10:19:00;12.82;;;4.95;;
71464;SDS011;59274;49.874;9.154;2023-02-20T10:21:51;17.77;;;5.97;;
71464;SDS011;59274;49.874;9.154;2023-02-20T10:30:24;10.93;;;4.40;;
71464;SDS011;59274;49.874;9.154;2023-02-20T10:35:48;13.77;;;4.45;;
71464;SDS011;59274;49.874;9.154;2023-02-20T10:38:20;10.95;;;4.45;;
71464;SDS011;59274;49.874;9.154;2023-02-20T10:41:01;11.65;;;4.85;;
71464;SDS011;59274;49.874;9.154;2023-02-20T10:46:22;9.88;;;3.97;;
71464;SDS011;59274;49.874;9.154;2023-02-20T10:48:57;11.88;;;4.05;;
71464;SDS011;59274;49.874;9.154;2023-02-20T10:51:34;9.18;;;3.90;;
71464;SDS011;59274;49.874;9.154;2023-02-20T10:54:07;13.07;;;4.20;;
71464;SDS011;59274;49.874;9.154;2023-02-20T10:56:40;8.73;;;3.50;;
71464;SDS011;59274;49.874;9.154;2023-02-20T10:59:56;11.10;;;3.70;;
71464;SDS011;59274;49.874;9.154;2023-02-20T11:02:18;10.95;;;3.67;;
71464;SDS011;59274;49.874;9.154;2023-02-20T11:04:49;10.80;;;3.53;;
71464;SDS011;59274;49.874;9.154;2023-02-20T11:07:18;10.40;;;3.95;;
71464;SDS011;59274;49.874;9.154;2023-02-20T11:09:46;11.63;;;3.40;;
71464;SDS011;59274;49.874;9.154;2023-02-20T11:13:13;13.40;;;4.57;;
71464;SDS011;59274;49.874;9.154;2023-02-20T11:15:19;8.98;;;3.63;;
71464;SDS011;59274;49.874;9.154;2023-02-20T11:17:54;11.23;;;3.30;;
71464;SDS011;59274;49.874;9.154;2023-02-20T11:23:05;10.00;;;3.13;;
71464;SDS011;59274;49.874;9.154;2023-02-20T11:25:35;12.75;;;3.55;;
71464;SDS011;59274;49.874;9.154;2023-02-20T11:28:18;8.23;;;3.45;;
71464;SDS011;59274;49.874;9.154;2023-02-20T11:30:47;9.87;;;3.40;;
71464;SDS011;59274;49.874;9.154;2023-02-20T11:33:22;9.23;;;3.97;;
71464;SDS011;59274;49.874;9.154;2023-02-20T11:35:50;9.55;;;3.83;;
71464;SDS011;59274;49.874;9.154;2023-02-20T11:43:34;10.40;;;3.40;;
71464;SDS011;59274;49.874;9.154;2023-02-20T11:46:23;9.98;;;3.95;;
71464;SDS011;59274;49.874;9.154;2023-02-20T11:49:10;8.97;;;3.40;;
71464;SDS011;59274;49.874;9.154;2023-02-20T11:51:48;9.60;;;3.67;;
71464;SDS011;59274;49.874;9.154;2023-02-20T11:54:21;11.60;;;3.97;;
71464;SDS011;59274;49.874;9.154;2023-02-20T12:00:06;11.20;;;3.60;;
71464;SDS011;59274;49.874;9.154;2023-02-20T12:02:35;10.23;;;3.20;;
71464;SDS011;59274;49.874;9.154;2023-02-20T12:05:12;10.40;;;3.70;;
71464;SDS011;59274;49.874;9.154;2023-02-20T12:07:42;12.15;;;3.40;;
71464;SDS011;59274;49.874;9.154;2023-02-20T12:10:34;10.10;;;3.67;;
71464;SDS011;59274;49.874;9.154;2023-02-20T12:13:06;11.95;;;3.53;;
71464;SDS011;59274;49.874;9.154;2023-02-20T12:15:37;9.32;;;3.72;;
71464;SDS011;59274;49.874;9.154;2023-02-20T12:32:05;13.65;;;3.35;;
71464;SDS011;59274;49.874;9.154;2023-02-20T12:40:46;10.23;;;3.88;;
71464;SDS011;59274;49.874;9.154;2023-02-20T12:43:41;11.50;;;3.53;;
71464;SDS011;59274;49.874;9.154;2023-02-20T12:46:28;10.13;;;3.35;;
71464;SDS011;59274;49.874;9.154;2023-02-20T12:52:04;9.68;;;3.47;;
71464;SDS011;59274;49.874;9.154;2023-02-20T12:58:01;9.97;;;3.80;;
71464;SDS011;59274;49.874;9.154;2023-02-20T13:00:38;8.75;;;3.45;;
71464;SDS011;59274;49.874;9.154;2023-02-20T13:03:09;9.40;;;3.08;;
71464;SDS011;59274;49.874;9.154;2023-02-20T13:05:41;12.32;;;3.47;;
71464;SDS011;59274;49.874;9.154;2023-02-20T13:08:13;8.48;;;3.28;;
71464;SDS011;59274;49.874;9.154;2023-02-20T13:11:04;11.00;;;3.10;;
71464;SDS011;59274;49.874;9.154;2023-02-20T13:13:36;29.45;;;12.45;;
71464;SDS011;59274;49.874;9.154;2023-02-20T13:16:30;18.70;;;7.10;;
71464;SDS011;59274;49.874;9.154;2023-02-20T13:19:05;8.88;;;2.97;;
71464;SDS011;59274;49.874;9.154;2023-02-20T13:21:35;8.10;;;2.78;;
71464;SDS011;59274;49.874;9.154;2023-02-20T13:29:11;9.57;;;3.73;;
71464;SDS011;59274;49.874;9.154;2023-02-20T13:47:02;7.07;;;2.80;;
71464;SDS011;59274;49.874;9.154;2023-02-20T13:57:55;7.20;;;2.80;;
71464;SDS011;59274;49.874;9.154;2023-02-20T14:00:33;8.27;;;3.10;;
71464;SDS011;59274;49.874;9.154;2023-02-20T14:03:10;8.45;;;2.40;;
71464;SDS011;59274;49.874;9.154;2023-02-20T14:05:37;7.13;;;2.70;;
71464;SDS011;59274;49.874;9.154;2023-02-20T14:08:03;6.90;;;2.40;;
71464;SDS011;59274;49.874;9.154;2023-02-20T14:13:00;8.82;;;2.83;;
71464;SDS011;59274;49.874;9.154;2023-02-20T14:15:51;8.20;;;3.00;;
71464;SDS011;59274;49.874;9.154;2023-02-20T14:18:23;9.27;;;2.27;;
71464;SDS011;59274;49.874;9.154;2023-02-20T14:20:50;6.50;;;2.45;;
71464;SDS011;59274;49.874;9.154;2023-02-20T14:23:39;7.45;;;2.60;;
71464;SDS011;59274;49.874;9.154;2023-02-20T14:26:17;7.82;;;2.40;;
71464;SDS011;59274;49.874;9.154;2023-02-20T14:28:51;6.40;;;2.40;;
71464;SDS011;59274;49.874;9.154;2023-02-20T14:31:30;7.37;;;2.70;;
71464;SDS011;59274;49.874;9.154;2023-02-20T14:42:04;8.93;;;2.72;;
71464;SDS011;59274;49.874;9.154;2023-02-20T14:44:37;7.40;;;2.33;;
71464;SDS011;59274;49.874;9.154;2023-02-20T14:47:07;6.40;;;2.05;;
71464;SDS011;59274;49.874;9.154;2023-02-20T14:49:36;6.22;;;2.38;;
71464;SDS011;59274;49.874;9.154;2023-02-20T14:55:00;6.82;;;2.08;;
71464;SDS011;59274;49.874;9.154;2023-02-20T14:57:28;8.20;;;2.38;;
71464;SDS011;59274;49.874;9.154;2023-02-20T15:00:11;5.72;;;2.08;;
71464;SDS011;59274;49.874;9.154;2023-02-20T15:02:49;7.30;;;2.42;;
71464;SDS011;59274;49.874;9.154;2023-02-20T15:05:23;7.60;;;2.30;;
71464;SDS011;59274;49.874;9.154;2023-02-20T15:07:52;7.38;;;2.03;;
71464;SDS011;59274;49.874;9.154;2023-02-20T15:10:32;6.88;;;2.22;;
71464;SDS011;59274;49.874;9.154;2023-02-20T15:13:06;5.53;;;1.85;;
71464;SDS011;59274;49.874;9.154;2023-02-20T15:15:34;6.13;;;2.33;;
71464;SDS011;59274;49.874;9.154;2023-02-20T15:18:07;7.35;;;2.30;;
71464;SDS011;59274;49.874;9.154;2023-02-20T15:20:37;6.00;;;2.22;;
71464;SDS011;59274;49.874;9.154;2023-02-20T15:23:09;6.05;;;2.30;;
71464;SDS011;59274;49.874;9.154;2023-02-20T15:25:38;6.63;;;2.33;;
71464;SDS011;59274;49.874;9.154;2023-02-20T15:30:58;7.72;;;2.80;;
71464;SDS011;59274;49.874;9.154;2023-02-20T15:33:27;7.10;;;2.38;;
71464;SDS011;59274;49.874;9.154;2023-02-20T15:35:55;6.60;;;2.22;;
71464;SDS011;59274;49.874;9.154;2023-02-20T15:38:20;7.20;;;2.38;;
71464;SDS011;59274;49.874;9.154;2023-02-20T15:40:49;7.93;;;3.60;;
71464;SDS011;59274;49.874;9.154;2023-02-20T15:43:14;8.50;;;2.70;;
71464;SDS011;59274;49.874;9.154;2023-02-20T15:45:40;5.50;;;2.10;;
71464;SDS011;59274;49.874;9.154;2023-02-20T15:48:05;7.37;;;2.40;;
71464;SDS011;59274;49.874;9.154;2023-02-20T15:50:32;9.48;;;2.22;;
71464;SDS011;59274;49.874;9.154;2023-02-20T15:52:58;8.18;;;2.20;;
71464;SDS011;59274;49.874;9.154;2023-02-20T15:55:25;7.38;;;2.17;;
71464;SDS011;59274;49.874;9.154;2023-02-20T15:57:53;6.57;;;2.40;;
71464;SDS011;59274;49.874;9.154;2023-02-20T16:00:28;8.30;;;2.20;;
71464;SDS011;59274;49.874;9.154;2023-02-20T16:02:57;5.85;;;1.80;;
71464;SDS011;59274;49.874;9.154;2023-02-20T16:05:24;7.78;;;2.25;;
71464;SDS011;59274;49.874;9.154;2023-02-20T16:07:50;6.38;;;2.10;;
71464;SDS011;59274;49.874;9.154;2023-02-20T16:10:18;8.53;;;2.03;;
71464;SDS011;59274;49.874;9.154;2023-02-20T16:12:47;9.38;;;2.40;;
71464;SDS011;59274;49.874;9.154;2023-02-20T16:15:18;7.97;;;2.03;;
71464;SDS011;59274;49.874;9.154;2023-02-20T16:17:46;6.38;;;2.00;;
71464;SDS011;59274;49.874;9.154;2023-02-20T16:20:13;5.97;;;1.88;;
71464;SDS011;59274;49.874;9.154;2023-02-20T16:22:40;9.10;;;2.92;;
71464;SDS011;59274;49.874;9.154;2023-02-20T16:25:06;6.00;;;1.67;;
71464;SDS011;59274;49.874;9.154;2023-02-20T16:27:31;7.57;;;1.77;;
71464;SDS011;59274;49.874;9.154;2023-02-20T16:29:57;6.70;;;1.83;;
71464;SDS011;59274;49.874;9.154;2023-02-20T16:32:24;5.83;;;2.00;;
71464;SDS011;59274;49.874;9.154;2023-02-20T16:34:53;6.75;;;1.80;;
71464;SDS011;59274;49.874;9.154;2023-02-20T16:37:20;8.45;;;1.70;;
71464;SDS011;59274;49.874;9.154;2023-02-20T16:39:46;8.13;;;2.10;;
71464;SDS011;59274;49.874;9.154;2023-02-20T16:42:22;6.87;;;1.83;;
71464;SDS011;59274;49.874;9.154;2023-02-20T16:44:51;9.50;;;2.10;;
71464;SDS011;59274;49.874;9.154;2023-02-20T16:47:20;4.95;;;1.83;;
71464;SDS011;59274;49.874;9.154;2023-02-20T16:49:48;6.90;;;1.92;;
71464;SDS011;59274;49.874;9.154;2023-02-20T16:52:28;6.77;;;1.80;;
71464;SDS011;59274;49.874;9.154;2023-02-20T16:54:58;6.30;;;1.80;;
71464;SDS011;59274;49.874;9.154;2023-02-20T16:57:25;5.55;;;1.90;;
71464;SDS011;59274;49.874;9.154;2023-02-20T16:59:52;6.97;;;2.00;;
71464;SDS011;59274;49.874;9.154;2023-02-20T17:02:21;7.00;;;1.70;;
71464;SDS011;59274;49.874;9.154;2023-02-20T17:04:49;6.72;;;2.38;;
71464;SDS011;59274;49.874;9.154;2023-02-20T17:07:15;6.00;;;1.80;;